createdAt,value
2023-07-15T00:01:38.332Z,19.00
2023-07-15T00:04:12.708Z,17.20
2023-07-15T00:06:40.525Z,19.00
2023-07-15T00:09:07.889Z,18.20
2023-07-15T00:11:38.560Z,19.00
2023-07-15T00:14:15.796Z,18.80
2023-07-15T00:16:43.084Z,17.20
2023-07-15T00:19:10.409Z,19.40
2023-07-15T00:21:38.068Z,18.40
2023-07-15T00:24:05.357Z,16.80
2023-07-15T00:26:33.814Z,17.80
2023-07-15T00:29:01.400Z,18.50
2023-07-15T00:31:29.257Z,17.50
2023-07-15T00:33:56.444Z,20.00
2023-07-15T00:36:23.936Z,20.75
2023-07-15T00:38:51.248Z,20.00
2023-07-15T00:41:22.577Z,19.00
2023-07-15T00:44:04.071Z,19.00
2023-07-15T00:46:54.557Z,19.25
2023-07-15T00:49:27.764Z,17.20
2023-07-15T00:52:11.343Z,21.20
2023-07-15T00:54:43.070Z,21.00
2023-07-15T00:57:12.475Z,17.25
2023-07-15T00:59:40.875Z,19.50
2023-07-15T01:02:10.515Z,19.75
2023-07-15T01:04:37.699Z,19.50
2023-07-15T01:07:08.455Z,18.60
2023-07-15T01:09:36.407Z,17.80
2023-07-15T01:12:04.594Z,18.60
2023-07-15T01:14:31.831Z,20.75
2023-07-15T01:16:58.851Z,16.80
2023-07-15T01:19:26.215Z,18.20
2023-07-15T01:21:54.620Z,16.60
2023-07-15T01:24:23.535Z,14.00
2023-07-15T01:26:57.810Z,18.00
2023-07-15T01:29:25.330Z,15.60
2023-07-15T01:31:52.404Z,19.00
2023-07-15T01:34:20.942Z,17.80
2023-07-15T01:36:49.345Z,15.60
2023-07-15T01:39:17.070Z,15.00
2023-07-15T01:41:45.560Z,14.60
2023-07-15T01:44:13.561Z,17.80
2023-07-15T01:46:41.107Z,12.20
2023-07-15T01:49:08.663Z,17.20
2023-07-15T01:51:36.704Z,15.75
2023-07-15T01:54:04.326Z,19.00
2023-07-15T01:56:31.664Z,18.00
2023-07-15T01:58:59.128Z,16.00
2023-07-15T02:01:28.756Z,15.00
2023-07-15T02:03:56.268Z,19.00
2023-07-15T02:06:23.681Z,19.00
2023-07-15T02:08:51.168Z,19.50
2023-07-15T02:11:18.261Z,17.75
2023-07-15T02:13:45.473Z,18.60
2023-07-15T02:16:13.280Z,17.25
2023-07-15T02:18:40.755Z,15.25
2023-07-15T02:21:08.259Z,18.00
2023-07-15T02:23:36.758Z,17.00
2023-07-15T02:26:03.818Z,15.20
2023-07-15T02:28:31.278Z,19.00
2023-07-15T02:30:58.361Z,17.00
2023-07-15T02:33:25.830Z,16.00
2023-07-15T02:35:53.198Z,15.50
2023-07-15T02:38:20.201Z,17.50
2023-07-15T02:40:49.585Z,16.00
2023-07-15T02:43:16.749Z,8.25
2023-07-15T02:45:43.832Z,16.40
2023-07-15T02:48:11.074Z,15.75
2023-07-15T02:50:38.200Z,15.00
2023-07-15T02:53:05.706Z,13.25
2023-07-15T02:55:33.073Z,15.80
2023-07-15T02:58:00.255Z,13.50
2023-07-15T03:00:27.784Z,17.33
2023-07-15T03:02:54.904Z,13.00
2023-07-15T03:05:22.482Z,16.20
2023-07-15T03:07:50.642Z,19.00
2023-07-15T03:10:20.229Z,18.50
2023-07-15T03:12:49.453Z,20.00
2023-07-15T03:15:17.299Z,18.25
2023-07-15T03:17:45.174Z,16.60
2023-07-15T03:20:24.727Z,13.40
2023-07-15T03:22:52.601Z,16.00
2023-07-15T03:25:22.998Z,17.60
2023-07-15T03:27:51.495Z,15.40
2023-07-15T03:30:19.834Z,17.20
2023-07-15T03:32:50.033Z,15.20
2023-07-15T03:35:17.809Z,18.75
2023-07-15T03:37:45.837Z,19.25
2023-07-15T03:40:14.274Z,19.75
2023-07-15T03:42:42.823Z,18.25
2023-07-15T03:45:10.946Z,17.60
2023-07-15T03:47:39.842Z,12.20
2023-07-15T03:50:10.701Z,14.00
2023-07-15T03:52:40.598Z,18.60
2023-07-15T04:03:33.477Z,14.25
2023-07-15T04:06:00.876Z,17.00
2023-07-15T04:08:27.866Z,18.40
2023-07-15T04:10:55.240Z,15.60
2023-07-15T04:13:22.277Z,18.50
2023-07-15T04:15:49.477Z,16.00
2023-07-15T04:18:18.027Z,19.00
2023-07-15T04:20:45.156Z,17.00
2023-07-15T04:23:12.272Z,17.00
2023-07-15T04:25:40.001Z,18.20
2023-07-15T04:28:07.019Z,16.80
2023-07-15T04:30:34.105Z,19.00
2023-07-15T04:33:01.191Z,22.00
2023-07-15T04:35:29.269Z,21.00
2023-07-15T04:37:56.292Z,20.00
2023-07-15T04:40:23.595Z,19.00
2023-07-15T04:42:50.576Z,19.00
2023-07-15T04:45:17.578Z,20.00
2023-07-15T04:47:44.742Z,18.40
2023-07-15T04:50:12.093Z,17.80
2023-07-15T04:52:39.289Z,17.40
2023-07-15T04:55:06.624Z,14.20
2023-07-15T04:57:33.822Z,17.80
2023-07-15T05:00:02.217Z,17.40
2023-07-15T05:02:32.572Z,19.20
2023-07-15T05:04:59.679Z,18.00
2023-07-15T05:07:26.874Z,19.20
2023-07-15T05:09:53.933Z,19.60
2023-07-15T05:12:21.176Z,17.80
2023-07-15T05:14:49.647Z,19.20
2023-07-15T05:17:16.664Z,19.60
2023-07-15T05:19:44.630Z,19.40
2023-07-15T05:22:12.043Z,16.00
2023-07-15T05:24:40.184Z,16.40
2023-07-15T05:27:07.472Z,18.40
2023-07-15T05:29:34.654Z,17.40
2023-07-15T05:32:01.923Z,16.40
2023-07-15T05:34:29.040Z,18.00
2023-07-15T05:36:56.198Z,18.40
2023-07-15T05:39:23.679Z,16.80
2023-07-15T05:41:51.539Z,17.00
2023-07-15T05:44:18.641Z,16.80
2023-07-15T05:46:45.747Z,18.20
2023-07-15T05:49:12.994Z,17.00
2023-07-15T05:51:40.151Z,15.80
2023-07-15T05:54:07.379Z,18.20
2023-07-15T05:56:34.515Z,19.20
2023-07-15T05:59:01.480Z,16.80
2023-07-15T06:01:28.590Z,19.00
2023-07-15T06:03:55.932Z,16.40
2023-07-15T06:06:23.384Z,17.80
2023-07-15T06:08:50.596Z,16.20
2023-07-15T06:11:18.502Z,15.40
2023-07-15T06:13:45.570Z,16.00
2023-07-15T06:16:12.756Z,15.60
2023-07-15T06:18:40.325Z,15.00
2023-07-15T06:21:08.811Z,14.00
2023-07-15T06:23:36.943Z,12.40
2023-07-15T06:26:04.254Z,12.20
2023-07-15T06:28:31.480Z,10.20
2023-07-15T06:31:07.973Z,11.80
2023-07-15T06:33:36.779Z,13.80
2023-07-15T06:36:05.121Z,11.20
2023-07-15T06:38:32.324Z,11.20
2023-07-15T06:40:59.622Z,11.00
2023-07-15T06:43:26.578Z,11.20
2023-07-15T06:45:53.588Z,10.00
2023-07-15T06:48:20.779Z,14.00
2023-07-15T06:50:48.039Z,12.20
2023-07-15T06:53:15.056Z,12.00
2023-07-15T06:55:42.593Z,10.60
2023-07-15T06:58:09.694Z,11.00
2023-07-15T07:00:37.094Z,8.80
2023-07-15T07:03:04.306Z,9.60
2023-07-15T07:05:31.636Z,6.60
2023-07-15T07:07:58.978Z,8.40
2023-07-15T07:10:26.177Z,8.60
2023-07-15T07:12:53.250Z,9.00
2023-07-15T07:15:20.584Z,11.00
2023-07-15T07:17:47.824Z,12.20
2023-07-15T07:20:15.149Z,12.60
2023-07-15T07:22:43.981Z,7.00
2023-07-15T07:25:11.223Z,13.00
2023-07-15T07:27:39.477Z,10.60
2023-07-15T07:30:07.528Z,8.00
2023-07-15T07:32:34.938Z,8.20
2023-07-15T07:35:02.247Z,8.00
2023-07-15T07:37:29.560Z,7.60
2023-07-15T07:39:56.644Z,8.00
2023-07-15T07:42:24.121Z,9.00
2023-07-15T07:44:51.161Z,9.00
2023-07-15T07:47:18.298Z,8.80
2023-07-15T07:49:45.288Z,6.80
2023-07-15T07:52:14.251Z,8.00
2023-07-15T07:54:41.473Z,8.00
2023-07-15T07:57:09.548Z,8.20
2023-07-15T07:59:38.185Z,7.60
2023-07-15T08:02:05.388Z,7.00
2023-07-15T08:04:34.185Z,7.20
2023-07-15T08:07:01.334Z,8.40
2023-07-15T08:09:31.828Z,16.00
2023-07-15T08:12:00.212Z,6.00
2023-07-15T08:14:27.390Z,7.40
2023-07-15T08:16:54.672Z,5.80
2023-07-15T08:19:21.855Z,6.80
2023-07-15T08:21:48.934Z,7.60
2023-07-15T08:24:16.185Z,7.20
2023-07-15T08:26:43.413Z,9.20
2023-07-15T08:29:10.480Z,9.80
2023-07-15T08:31:38.918Z,7.80
2023-07-15T08:34:06.017Z,7.00
2023-07-15T08:36:33.338Z,4.00
2023-07-15T08:39:00.339Z,7.20
2023-07-15T08:41:27.970Z,6.20
2023-07-15T08:43:55.116Z,7.40
2023-07-15T08:46:29.834Z,5.00
2023-07-15T08:48:58.937Z,5.80
2023-07-15T08:51:30.861Z,7.60
2023-07-15T08:54:02.323Z,5.40
2023-07-15T08:56:30.984Z,6.00
2023-07-15T08:58:59.401Z,4.00
2023-07-15T09:01:26.721Z,4.60
2023-07-15T09:03:54.007Z,6.00
2023-07-15T09:06:21.363Z,7.00
2023-07-15T09:08:52.426Z,6.60
2023-07-15T09:11:19.920Z,7.40
2023-07-15T09:13:48.111Z,8.00
2023-07-15T09:16:16.434Z,7.80
2023-07-15T09:18:44.533Z,6.00
2023-07-15T09:21:17.069Z,7.60
2023-07-15T09:23:46.202Z,9.40
2023-07-15T09:26:14.811Z,4.60
2023-07-15T09:28:48.321Z,5.00
2023-07-15T09:31:24.197Z,4.20
2023-07-15T09:33:51.423Z,3.20
2023-07-15T09:36:33.538Z,3.60
2023-07-15T09:39:19.534Z,2.60
2023-07-15T09:42:03.577Z,4.00
2023-07-15T09:44:46.889Z,3.00
2023-07-15T09:47:14.113Z,2.80
2023-07-15T09:49:41.357Z,3.40
2023-07-15T09:52:08.761Z,4.80
2023-07-15T09:54:37.253Z,4.00
2023-07-15T09:57:12.252Z,2.40
2023-07-15T09:59:47.734Z,3.40
2023-07-15T10:02:43.498Z,3.00
2023-07-15T10:05:14.994Z,3.40
2023-07-15T10:07:42.876Z,2.40
2023-07-15T10:10:10.337Z,3.20
2023-07-15T10:12:39.437Z,2.60
2023-07-15T10:15:08.721Z,2.20
2023-07-15T10:17:39.797Z,3.00
2023-07-15T10:20:11.774Z,2.00
2023-07-15T10:22:40.733Z,4.00
2023-07-15T10:25:17.195Z,2.00
2023-07-15T10:27:44.641Z,5.00
2023-07-15T10:30:23.595Z,4.60
2023-07-15T10:33:23.502Z,2.60
2023-07-15T10:35:52.861Z,4.40
2023-07-15T10:38:30.665Z,3.80
2023-07-15T10:41:03.274Z,3.00
2023-07-15T10:43:36.408Z,3.60
2023-07-15T10:46:08.085Z,3.20
2023-07-15T10:48:36.649Z,3.00
2023-07-15T10:51:07.096Z,1.40
2023-07-15T10:53:35.574Z,3.40
2023-07-15T10:56:10.602Z,2.00
2023-07-15T10:58:38.397Z,1.80
2023-07-15T11:01:09.504Z,3.60
2023-07-15T11:03:38.904Z,3.00
2023-07-15T11:06:10.222Z,3.00
2023-07-15T11:08:41.192Z,3.00
2023-07-15T11:11:11.726Z,3.60
2023-07-15T11:13:40.773Z,2.80
2023-07-15T11:16:08.145Z,3.40
2023-07-15T11:18:35.479Z,3.20
2023-07-15T11:21:02.852Z,8.00
2023-07-15T11:23:32.158Z,6.60
2023-07-15T11:26:09.012Z,3.20
2023-07-15T11:28:36.230Z,2.80
2023-07-15T11:31:03.337Z,2.60
2023-07-15T11:33:30.499Z,3.00
2023-07-15T11:35:57.734Z,3.00
2023-07-15T11:38:32.126Z,3.00
2023-07-15T11:41:01.249Z,4.20
2023-07-15T11:43:31.566Z,2.40
2023-07-15T11:46:00.654Z,1.60
2023-07-15T11:48:32.601Z,2.80
2023-07-15T11:51:10.052Z,1.00
2023-07-15T11:53:38.944Z,3.00
2023-07-15T11:56:09.199Z,4.40
2023-07-15T11:58:40.753Z,3.20
2023-07-15T12:01:13.796Z,2.40
2023-07-15T12:03:41.622Z,3.80
2023-07-15T12:06:20.184Z,3.00
2023-07-15T12:09:02.968Z,4.00
2023-07-15T12:11:34.189Z,3.20
2023-07-15T12:14:02.732Z,3.00
2023-07-15T12:16:32.038Z,2.40
2023-07-15T12:19:00.605Z,0.00
2023-07-15T12:21:28.669Z,3.40
2023-07-15T12:23:57.096Z,1.60
2023-07-15T12:26:24.587Z,3.60
2023-07-15T12:28:52.111Z,10.00
2023-07-15T12:31:19.862Z,5.60
2023-07-15T12:33:47.279Z,4.40
2023-07-15T12:36:17.635Z,2.20
2023-07-15T12:38:46.205Z,2.20
2023-07-15T12:41:14.289Z,2.60
2023-07-15T12:43:42.513Z,0.60
2023-07-15T12:46:10.940Z,6.80
2023-07-15T12:48:40.107Z,5.00
2023-07-15T12:51:07.348Z,7.20
2023-07-15T12:53:35.321Z,2.00
2023-07-15T12:56:02.314Z,3.00
2023-07-15T12:58:30.363Z,3.40
2023-07-15T13:00:58.733Z,3.20
2023-07-15T13:03:26.725Z,3.00
2023-07-15T13:05:54.006Z,1.80
2023-07-15T13:08:21.323Z,2.40
2023-07-15T13:10:49.130Z,1.40
2023-07-15T13:13:16.228Z,3.00
2023-07-15T13:15:46.103Z,2.80
2023-07-15T13:18:14.132Z,2.00
2023-07-15T13:20:42.355Z,1.20
2023-07-15T13:23:10.254Z,2.00
2023-07-15T13:25:39.346Z,2.00
2023-07-15T13:28:06.507Z,2.20
2023-07-15T13:30:34.880Z,9.20
2023-07-15T13:33:02.151Z,6.60
2023-07-15T13:35:30.134Z,6.40
2023-07-15T13:37:57.152Z,2.60
2023-07-15T13:40:24.686Z,2.20
2023-07-15T13:42:52.540Z,1.60
2023-07-15T13:45:20.559Z,3.40
2023-07-15T13:47:53.671Z,2.00
2023-07-15T13:50:22.436Z,3.00
2023-07-15T13:52:49.820Z,2.20
2023-07-15T13:55:18.276Z,3.00
2023-07-15T13:57:48.009Z,3.00
2023-07-15T14:00:15.622Z,2.00
2023-07-15T14:02:44.099Z,2.40
2023-07-15T14:05:11.713Z,1.80
2023-07-15T14:07:38.969Z,1.80
2023-07-15T14:10:07.186Z,1.60
2023-07-15T14:12:34.938Z,2.00
2023-07-15T14:15:02.323Z,1.20
2023-07-15T14:17:29.586Z,1.80
2023-07-15T14:22:34.175Z,3.00
2023-07-15T14:25:06.539Z,2.00
2023-07-15T14:27:34.452Z,2.20
2023-07-15T14:30:01.614Z,2.20
2023-07-15T14:32:29.063Z,2.60
2023-07-15T14:34:56.147Z,4.00
2023-07-15T14:37:23.149Z,5.80
2023-07-15T14:39:50.168Z,2.60
2023-07-15T14:42:17.664Z,2.80
2023-07-15T14:44:44.726Z,3.00
2023-07-15T14:47:11.993Z,2.20
2023-07-15T14:49:39.277Z,3.40
2023-07-15T14:52:06.736Z,4.60
2023-07-15T14:54:34.304Z,4.80
2023-07-15T14:57:02.449Z,2.80
2023-07-15T14:59:30.151Z,3.20
2023-07-15T15:01:57.170Z,1.80
2023-07-15T15:04:25.823Z,5.40
2023-07-15T15:06:53.327Z,5.20
2023-07-15T15:09:20.616Z,3.80
2023-07-15T15:11:47.616Z,8.80
2023-07-15T15:14:14.903Z,1.60
2023-07-15T15:16:42.244Z,6.20
2023-07-15T15:19:09.607Z,5.00
2023-07-15T15:21:38.432Z,3.80
2023-07-15T15:24:06.166Z,5.00
2023-07-15T15:26:33.632Z,4.60
2023-07-15T15:29:00.975Z,5.00
2023-07-15T15:31:28.250Z,7.20
2023-07-15T15:33:55.472Z,8.00
2023-07-15T15:36:22.644Z,5.20
2023-07-15T15:38:49.717Z,4.00
2023-07-15T15:41:16.942Z,5.40
2023-07-15T15:43:44.744Z,8.40
2023-07-15T15:46:12.392Z,4.80
2023-07-15T15:48:42.310Z,8.60
2023-07-15T15:51:10.017Z,8.40
2023-07-15T15:53:37.454Z,7.00
2023-07-15T15:56:05.315Z,4.40
2023-07-15T15:58:32.533Z,4.40
2023-07-15T16:00:59.722Z,3.60
2023-07-15T16:03:30.344Z,4.20
2023-07-15T16:05:58.588Z,4.00
2023-07-15T16:08:26.190Z,5.00
2023-07-15T16:10:53.334Z,5.20
2023-07-15T16:13:20.689Z,6.40
2023-07-15T16:15:49.233Z,4.60
2023-07-15T16:18:16.251Z,5.80
2023-07-15T16:20:44.005Z,4.00
2023-07-15T16:23:11.895Z,6.60
2023-07-15T16:25:41.174Z,8.00
2023-07-15T16:28:08.867Z,5.00
2023-07-15T16:30:37.128Z,3.60
2023-07-15T16:33:05.299Z,5.60
2023-07-15T16:35:32.637Z,2.00
2023-07-15T16:38:16.350Z,4.20
2023-07-15T16:40:43.987Z,4.00
2023-07-15T16:43:11.063Z,4.40
2023-07-15T16:45:38.759Z,4.00
2023-07-15T16:48:06.249Z,4.40
2023-07-15T16:50:33.400Z,2.60
2023-07-15T16:53:00.399Z,4.60
2023-07-15T16:55:27.652Z,4.00
2023-07-15T16:57:54.629Z,3.20
2023-07-15T17:00:22.296Z,4.20
2023-07-15T17:02:49.505Z,2.80
2023-07-15T17:05:16.825Z,5.20
2023-07-15T17:07:43.913Z,5.40
2023-07-15T17:10:11.136Z,5.80
2023-07-15T17:12:38.640Z,4.00
2023-07-15T17:15:06.321Z,5.80
2023-07-15T17:17:33.581Z,3.80
2023-07-15T17:20:00.815Z,4.40
2023-07-15T17:22:28.022Z,5.60
2023-07-15T17:24:57.655Z,5.60
2023-07-15T17:27:25.072Z,5.60
2023-07-15T17:29:52.066Z,5.80
2023-07-15T17:32:19.516Z,6.40
2023-07-15T17:34:47.135Z,5.60
2023-07-15T17:37:14.295Z,5.80
2023-07-15T17:39:41.431Z,6.40
2023-07-15T17:42:08.618Z,7.00
2023-07-15T17:44:36.368Z,7.80
2023-07-15T17:47:03.993Z,5.00
2023-07-15T17:49:31.950Z,7.80
2023-07-15T17:51:59.072Z,6.80
2023-07-15T17:54:28.056Z,7.60
2023-07-15T17:56:56.076Z,8.40
2023-07-15T17:59:23.550Z,8.00
2023-07-15T18:01:50.862Z,7.80
2023-07-15T18:04:18.141Z,8.20
2023-07-15T18:06:45.456Z,6.20
2023-07-15T18:09:13.652Z,11.40
2023-07-15T18:11:41.606Z,10.40
2023-07-15T18:14:08.938Z,11.00
2023-07-15T18:16:36.578Z,11.40
2023-07-15T18:19:05.202Z,10.20
2023-07-15T18:21:32.681Z,13.00
2023-07-15T18:23:59.760Z,9.60
2023-07-15T18:26:26.827Z,11.80
2023-07-15T18:28:55.384Z,11.60
2023-07-15T18:31:22.986Z,8.60
2023-07-15T18:33:50.670Z,10.80
2023-07-15T18:36:17.732Z,11.20
2023-07-15T18:38:44.955Z,10.80
2023-07-15T18:41:13.285Z,10.40
2023-07-15T18:43:41.987Z,15.20
2023-07-15T18:46:09.943Z,12.20
2023-07-15T18:48:37.523Z,12.60
2023-07-15T18:51:05.303Z,11.60
2023-07-15T18:53:33.160Z,8.80
2023-07-15T18:56:00.327Z,13.60
2023-07-15T18:58:28.471Z,9.60
2023-07-15T19:00:55.521Z,8.20
2023-07-15T19:03:22.806Z,10.40
2023-07-15T19:05:51.411Z,12.00
2023-07-15T19:08:19.680Z,11.20
2023-07-15T19:10:46.837Z,9.00
2023-07-15T19:13:15.430Z,10.00
2023-07-15T19:15:42.795Z,10.40
2023-07-15T19:18:10.251Z,11.40
2023-07-15T19:20:38.273Z,10.00
2023-07-15T19:23:05.440Z,11.60
2023-07-15T19:25:33.509Z,10.60
2023-07-15T19:28:00.959Z,9.20
2023-07-15T19:30:28.033Z,10.40
2023-07-15T19:32:55.946Z,8.80
2023-07-15T19:35:23.506Z,9.80
2023-07-15T19:37:50.598Z,9.00
2023-07-15T19:40:17.764Z,21.40
2023-07-15T19:42:45.048Z,11.20
2023-07-15T19:45:12.190Z,17.00
2023-07-15T19:47:40.435Z,8.00
2023-07-15T19:50:08.277Z,10.80
2023-07-15T19:52:35.690Z,10.80
2023-07-15T19:55:02.860Z,10.40
2023-07-15T19:57:30.290Z,8.00
2023-07-15T19:59:58.262Z,9.00
2023-07-15T20:02:25.648Z,9.60
2023-07-15T20:04:52.930Z,10.40
2023-07-15T20:07:20.370Z,4.60
2023-07-15T20:09:47.748Z,7.00
2023-07-15T20:12:14.886Z,11.00
2023-07-15T20:14:42.556Z,8.40
2023-07-15T20:17:11.941Z,7.60
2023-07-15T20:19:38.976Z,8.60
2023-07-15T20:22:06.453Z,7.40
2023-07-15T20:24:33.455Z,6.00
2023-07-15T20:27:00.612Z,7.00
2023-07-15T20:29:27.740Z,7.00
2023-07-15T20:31:55.145Z,8.80
2023-07-15T20:34:22.222Z,11.00
2023-07-15T20:36:49.678Z,9.00
2023-07-15T20:39:17.355Z,9.00
2023-07-15T20:41:44.770Z,9.00
2023-07-15T20:44:12.580Z,8.60
2023-07-15T20:46:40.309Z,9.00
2023-07-15T20:49:07.510Z,8.00
2023-07-15T20:51:35.100Z,7.40
2023-07-15T20:54:03.706Z,11.20
2023-07-15T20:56:30.961Z,9.80
2023-07-15T20:58:58.233Z,7.60
2023-07-15T21:01:25.528Z,10.20
2023-07-15T21:03:53.917Z,9.60
2023-07-15T21:06:21.060Z,9.80
2023-07-15T21:08:48.761Z,11.80
2023-07-15T21:11:19.180Z,10.00
2023-07-15T21:13:47.757Z,7.80
2023-07-15T21:16:15.248Z,8.00
2023-07-15T21:18:43.156Z,8.20
2023-07-15T21:21:10.997Z,10.00
2023-07-15T21:23:38.658Z,10.80
2023-07-15T21:26:07.671Z,13.40
2023-07-15T21:28:36.741Z,15.80
2023-07-15T21:31:04.741Z,14.60
2023-07-15T21:33:32.697Z,13.00
2023-07-15T21:35:59.989Z,15.20
2023-07-15T21:38:27.364Z,14.00
2023-07-15T21:40:54.489Z,13.40
2023-07-15T21:43:22.227Z,7.80
2023-07-15T21:45:49.316Z,13.00
2023-07-15T21:48:17.230Z,11.60
2023-07-15T21:50:45.913Z,10.40
2023-07-15T21:53:13.195Z,11.60
2023-07-15T21:55:41.271Z,10.60
2023-07-15T21:58:09.732Z,11.60
2023-07-15T22:00:39.593Z,12.00
2023-07-15T22:03:07.195Z,10.00
2023-07-15T22:05:34.904Z,11.00
2023-07-15T22:08:01.909Z,11.20
2023-07-15T22:10:29.527Z,13.00
2023-07-15T22:12:56.679Z,13.00
2023-07-15T22:15:24.183Z,17.00
2023-07-15T22:17:51.498Z,15.75
2023-07-15T22:20:18.775Z,18.75
2023-07-15T22:22:46.023Z,16.50
2023-07-15T22:25:13.374Z,13.00
2023-07-15T22:27:40.366Z,14.40
2023-07-15T22:30:09.754Z,14.40
2023-07-15T22:32:38.133Z,13.00
2023-07-15T22:35:05.604Z,14.00
2023-07-15T22:37:32.686Z,12.00
2023-07-15T22:39:59.814Z,13.75
2023-07-15T22:42:26.799Z,13.75
2023-07-15T22:44:53.968Z,13.25
2023-07-15T22:47:21.715Z,13.75
2023-07-15T22:49:48.884Z,12.50
2023-07-15T22:52:16.068Z,10.40
2023-07-15T22:54:45.010Z,11.80
2023-07-15T22:57:12.024Z,12.80
2023-07-15T22:59:39.071Z,12.00
2023-07-15T23:02:06.376Z,10.20
2023-07-15T23:04:33.537Z,10.50
2023-07-15T23:07:03.220Z,13.50
2023-07-15T23:09:30.408Z,13.40
2023-07-15T23:11:57.659Z,11.50
2023-07-15T23:14:24.997Z,11.75
2023-07-15T23:16:52.814Z,11.75
2023-07-15T23:19:19.830Z,13.25
2023-07-15T23:21:46.940Z,13.50
2023-07-15T23:24:14.175Z,7.75
2023-07-15T23:26:44.273Z,14.00
2023-07-15T23:29:11.704Z,12.75
2023-07-15T23:31:39.344Z,9.00
2023-07-15T23:34:25.642Z,10.00
2023-07-15T23:36:54.691Z,7.20
2023-07-15T23:39:22.184Z,10.00
2023-07-15T23:41:49.305Z,9.75
2023-07-15T23:44:16.340Z,11.00
2023-07-15T23:46:45.852Z,11.50
2023-07-15T23:49:13.156Z,10.00
2023-07-15T23:51:40.893Z,11.00
2023-07-15T23:54:08.175Z,10.25
2023-07-15T23:56:35.968Z,8.50
2023-07-15T23:59:03.372Z,10.00
